Time;durP1;ratioP1;P1;durP2;ratioP2;P2;SDS_P1;SDS_P2;PMS_P1;PMS_P2;Temp;Humidity;BMP_temperature;BMP_pressure;BME280_temperature;BME280_humidity;BME280_pressure;Samples;Min_cycle;Max_cycle;Signal;HPM_P1;HPM_P2
2022/01/11 00:02:00;;;;;;;;;1.75;1.50;;;;;4.66;70.80;102540.88;5063382;28;45513;-77
2022/01/11 00:04:29;;;;;;;;;3.00;1.50;;;;;4.80;71.14;102562.34;5063503;28;45607;-77
2022/01/11 00:06:54;;;;;;;;;0.75;0.75;;;;;4.83;71.09;102565.13;5063176;28;46328;-77
2022/01/11 00:09:32;;;;;;;;;1.25;1.00;;;;;4.67;71.24;102547.81;5041661;28;45453;-77
2022/01/11 00:11:58;;;;;;;;;2.00;0.00;;;;;4.86;71.14;102573.06;5045550;28;45685;-77
2022/01/11 00:14:23;;;;;;;;;2.50;1.25;;;;;4.65;71.30;102539.06;5063132;28;45738;-77
2022/01/11 00:16:49;;;;;;;;;3.00;1.25;;;;;4.56;70.88;102549.72;5062692;28;45980;-78
2022/01/11 00:19:15;;;;;;;;;1.00;0.75;;;;;4.70;70.99;102568.66;5044846;28;45712;-77
2022/01/11 00:21:46;;;;;;;;;1.00;1.00;;;;;4.60;70.70;102553.38;5044991;28;45372;-78
2022/01/11 00:24:29;;;;;;;;;2.00;1.00;;;;;4.52;70.47;102550.31;5058760;28;45401;-77
2022/01/11 00:27:01;;;;;;;;;1.00;1.00;;;;;4.62;70.82;102564.72;5022763;28;46188;-77
2022/01/11 00:29:28;;;;;;;;;0.25;0.25;;;;;4.50;71.21;102557.97;5004804;28;45440;-77
2022/01/11 00:31:57;;;;;;;;;0.50;0.50;;;;;4.67;71.28;102582.25;5022984;28;45430;-78
2022/01/11 00:34:24;;;;;;;;;0.75;0.00;;;;;4.46;70.73;102550.81;5021419;28;45624;-77
2022/01/11 00:36:50;;;;;;;;;0.00;0.00;;;;;4.44;71.16;102560.16;5042559;28;46212;-77
2022/01/11 00:39:15;;;;;;;;;0.00;0.00;;;;;4.56;71.18;102560.94;5031013;28;45384;-77
2022/01/11 00:41:43;;;;;;;;;1.00;1.00;;;;;4.54;71.04;102546.16;5024772;28;45365;-77
2022/01/11 00:44:09;;;;;;;;;0.00;0.00;;;;;4.59;71.46;102561.94;5024668;28;45397;-77
2022/01/11 00:46:35;;;;;;;;;1.00;1.00;;;;;4.50;71.79;102547.63;5042522;28;45490;-76
2022/01/11 00:49:00;;;;;;;;;0.00;0.00;;;;;4.51;71.19;102544.28;5042477;28;45400;-77
2022/01/11 00:51:26;;;;;;;;;2.00;2.00;;;;;4.69;71.51;102574.63;5043060;28;45387;-77
2022/01/11 00:53:52;;;;;;;;;2.75;1.00;;;;;4.68;70.92;102567.66;5041383;28;45472;-77
2022/01/11 00:56:17;;;;;;;;;3.00;1.00;;;;;4.67;70.90;102559.03;5042685;28;45344;-76
2022/01/11 00:58:43;;;;;;;;;0.50;0.50;;;;;4.04;71.44;102457.97;5042421;28;45394;-77
2022/01/11 01:01:08;;;;;;;;;0.25;0.25;;;;;4.46;70.83;102530.19;5042754;28;45380;-76
2022/01/11 01:03:34;;;;;;;;;0.25;0.25;;;;;4.73;71.44;102583.41;5042856;28;45309;-76
2022/01/11 01:06:00;;;;;;;;;1.50;1.50;;;;;4.66;71.48;102577.88;5042393;28;46359;-77
2022/01/11 01:08:26;;;;;;;;;3.25;2.00;;;;;4.50;71.59;102557.09;5034656;28;45474;-77
2022/01/11 01:10:52;;;;;;;;;2.00;0.00;;;;;4.77;70.99;102593.13;5021357;28;45452;-76
2022/01/11 01:13:21;;;;;;;;;0.75;0.75;;;;;4.70;71.29;102578.97;5010890;28;45408;-77
2022/01/11 01:15:49;;;;;;;;;2.00;1.00;;;;;4.84;71.80;102608.19;5041968;28;45513;-77
2022/01/11 01:18:17;;;;;;;;;0.75;0.75;;;;;4.68;70.67;102575.38;5042178;28;45873;-77
2022/01/11 01:20:45;;;;;;;;;1.75;1.00;;;;;4.75;71.09;102585.28;5042077;28;45359;-77
2022/01/11 01:23:12;;;;;;;;;0.00;0.00;;;;;4.92;70.79;102600.94;5042384;28;45345;-77
2022/01/11 01:25:38;;;;;;;;;1.25;1.25;;;;;4.86;71.26;102590.22;5031146;28;45525;-77
2022/01/11 01:28:05;;;;;;;;;1.00;1.00;;;;;4.76;70.90;102574.19;5021397;28;45404;-77
2022/01/11 01:30:30;;;;;;;;;0.50;0.50;;;;;4.61;70.77;102563.81;5022033;28;45301;-76
2022/01/11 01:32:56;;;;;;;;;1.50;0.75;;;;;4.66;71.01;102567.53;5006876;28;45366;-77
2022/01/11 01:35:25;;;;;;;;;1.25;1.25;;;;;4.64;71.18;102571.75;5039747;28;46023;-77
2022/01/11 01:37:50;;;;;;;;;3.00;1.00;;;;;4.60;70.83;102574.03;5041814;28;45447;-76
2022/01/11 01:40:19;;;;;;;;;1.00;0.25;;;;;4.76;70.70;102601.69;5031533;28;45907;-77
2022/01/11 01:42:47;;;;;;;;;0.75;0.75;;;;;4.82;70.77;102610.72;5021780;28;45358;-77
2022/01/11 01:45:13;;;;;;;;;1.75;1.75;;;;;4.68;70.79;102588.28;5021436;28;46102;-76
2022/01/11 01:47:39;;;;;;;;;2.00;1.00;;;;;4.86;71.50;102616.94;5003670;28;45486;-77
2022/01/11 01:50:06;;;;;;;;;2.75;2.75;;;;;4.88;70.77;102614.47;5021854;28;45395;-76
2022/01/11 01:52:32;;;;;;;;;3.50;1.25;;;;;4.56;70.91;102576.41;5022024;28;45380;-76
2022/01/11 01:54:58;;;;;;;;;4.00;1.50;;;;;4.78;71.32;102621.63;5027304;28;45458;-77
2022/01/11 01:57:24;;;;;;;;;2.00;1.00;;;;;4.76;70.95;102619.75;5041417;28;45487;-77
2022/01/11 01:59:50;;;;;;;;;2.00;1.00;;;;;4.45;70.69;102561.94;5023445;28;45518;-78
2022/01/11 02:02:15;;;;;;;;;2.00;1.75;;;;;4.57;70.86;102601.41;5023688;28;45536;-78
2022/01/11 02:04:41;;;;;;;;;3.00;2.00;;;;;4.64;70.56;102615.59;5041007;28;45499;-78
2022/01/11 02:07:06;;;;;;;;;0.75;0.75;;;;;4.67;70.67;102622.63;5041306;28;45697;-76
2022/01/11 02:09:32;;;;;;;;;3.00;1.00;;;;;4.36;70.88;102563.94;5039641;28;45423;-78
2022/01/11 02:11:57;;;;;;;;;1.25;0.00;;;;;4.77;70.88;102634.41;5024573;28;45528;-77
2022/01/11 02:14:23;;;;;;;;;0.75;0.25;;;;;4.72;70.74;102644.47;5057407;28;45498;-77
2022/01/11 02:16:48;;;;;;;;;0.75;0.75;;;;;4.65;70.91;102622.53;5061132;28;45394;-77
2022/01/11 02:19:14;;;;;;;;;0.00;0.00;;;;;4.60;71.25;102621.38;5061486;28;45380;-77
2022/01/11 02:21:39;;;;;;;;;0.50;0.25;;;;;4.53;71.11;102620.06;5061077;28;45845;-77
2022/01/11 02:24:05;;;;;;;;;1.25;0.75;;;;;4.52;70.37;102620.88;5042189;28;46994;-77
2022/01/11 02:26:31;;;;;;;;;1.00;1.00;;;;;4.67;70.51;102643.28;5030750;28;45499;-77
2022/01/11 02:28:56;;;;;;;;;1.00;1.00;;;;;4.50;70.74;102613.84;5019633;28;45308;-77
2022/01/11 02:31:22;;;;;;;;;2.00;1.00;;;;;4.38;70.24;102581.28;5033881;28;45399;-77
2022/01/11 02:33:56;;;;;;;;;1.75;1.50;;;;;4.70;70.61;102646.06;5003089;28;47027;-77
2022/01/11 02:36:24;;;;;;;;;0.00;0.00;;;;;4.68;70.54;102645.94;5033753;28;45467;-79
2022/01/11 02:38:53;;;;;;;;;0.25;0.25;;;;;4.62;70.33;102630.06;5034363;28;45363;-77
2022/01/11 02:41:19;;;;;;;;;0.50;0.50;;;;;4.33;70.33;102600.75;5015200;28;45429;-77
2022/01/11 02:43:47;;;;;;;;;1.00;1.00;;;;;4.16;70.52;102592.78;5031719;28;46591;-74
2022/01/11 02:46:14;;;;;;;;;0.75;0.50;;;;;4.38;70.17;102632.84;5030990;28;45388;-76
2022/01/11 02:48:40;;;;;;;;;1.25;1.25;;;;;4.17;70.46;102604.00;5012890;28;45428;-75
2022/01/11 02:51:05;;;;;;;;;2.00;1.00;;;;;4.29;70.59;102634.88;5023846;28;46082;-76
2022/01/11 02:53:31;;;;;;;;;3.00;1.50;;;;;4.25;71.03;102623.44;5028713;28;46288;-76
2022/01/11 02:55:57;;;;;;;;;0.00;0.00;;;;;4.38;70.99;102639.72;5032361;28;45372;-76
2022/01/11 02:58:22;;;;;;;;;1.00;1.00;;;;;4.38;70.23;102642.31;5031033;28;45933;-76
2022/01/11 03:00:48;;;;;;;;;0.25;0.00;;;;;4.23;70.36;102624.13;5015666;28;45532;-76
2022/01/11 03:03:17;;;;;;;;;1.25;1.25;;;;;4.25;70.95;102628.59;5027652;28;45436;-76
2022/01/11 03:06:03;;;;;;;;;0.75;0.75;;;;;4.07;70.80;102596.47;5030248;28;45376;-76
2022/01/11 03:08:35;;;;;;;;;0.25;0.00;;;;;4.04;71.15;102610.94;5028263;28;45510;-76
2022/01/11 03:11:01;;;;;;;;;1.50;0.00;;;;;4.21;70.83;102644.66;5029249;28;45554;-76
2022/01/11 03:13:27;;;;;;;;;0.00;0.00;;;;;4.25;70.14;102654.38;5021550;28;47101;-76
2022/01/11 03:15:53;;;;;;;;;1.00;1.00;;;;;3.99;70.91;102620.06;5038420;28;45320;-76
2022/01/11 03:18:20;;;;;;;;;0.75;0.75;;;;;4.28;70.90;102649.44;5022439;28;45471;-76
2022/01/11 03:20:48;;;;;;;;;0.00;0.00;;;;;4.30;70.64;102653.00;5040368;28;45380;-76
2022/01/11 03:23:16;;;;;;;;;1.50;1.00;;;;;4.24;70.19;102639.72;5039195;28;45469;-76
2022/01/11 03:25:42;;;;;;;;;2.00;2.00;;;;;4.13;70.63;102630.34;5052342;28;45407;-75
2022/01/11 03:28:08;;;;;;;;;1.00;1.00;;;;;4.19;70.93;102653.97;5060080;28;45336;-75
2022/01/11 03:30:34;;;;;;;;;0.00;0.00;;;;;4.06;70.94;102641.97;5060500;28;45314;-75
2022/01/11 03:33:00;;;;;;;;;0.00;0.00;;;;;4.24;70.54;102670.66;5060177;28;46198;-75
2022/01/11 03:35:28;;;;;;;;;0.00;0.00;;;;;4.13;70.92;102649.31;5048496;28;45448;-76
2022/01/11 03:37:54;;;;;;;;;1.75;0.25;;;;;4.16;70.34;102652.09;5030937;28;45557;-75
2022/01/11 03:40:25;;;;;;;;;1.25;1.00;;;;;4.20;70.90;102658.34;5048150;28;45435;-76
2022/01/11 03:42:50;;;;;;;;;0.00;0.00;;;;;3.95;70.33;102617.16;5048160;28;47634;-76
2022/01/11 03:45:17;;;;;;;;;3.00;2.00;;;;;4.13;70.80;102664.78;5048315;28;45896;-76
2022/01/11 03:47:43;;;;;;;;;1.00;1.00;;;;;4.11;70.44;102678.38;5066815;28;45425;-76
2022/01/11 03:50:10;;;;;;;;;0.25;0.25;;;;;4.08;70.70;102688.47;5066864;28;45444;-76
2022/01/11 03:52:38;;;;;;;;;2.00;0.00;;;;;4.05;71.27;102689.16;5049572;28;45530;-76
2022/01/11 03:55:11;;;;;;;;;0.75;0.75;;;;;4.13;70.55;102694.81;5028366;28;45808;-76
2022/01/11 03:57:38;;;;;;;;;2.00;0.50;;;;;3.84;70.48;102640.53;5046339;28;45351;-76
2022/01/11 04:00:09;;;;;;;;;1.00;1.00;;;;;3.93;71.08;102651.44;5028741;28;45710;-76
2022/01/11 04:02:34;;;;;;;;;3.50;0.00;;;;;3.72;70.31;102616.50;5028336;28;47671;-76
2022/01/11 04:05:00;;;;;;;;;0.00;0.00;;;;;3.97;70.54;102664.53;5046250;28;45481;-76
2022/01/11 04:07:27;;;;;;;;;1.00;1.00;;;;;3.92;70.54;102657.41;5039208;28;45814;-76
2022/01/11 04:09:54;;;;;;;;;0.50;0.50;;;;;3.93;71.34;102674.63;5066446;28;45398;-76
2022/01/11 04:12:20;;;;;;;;;0.00;0.00;;;;;3.96;71.52;102683.38;5066109;28;46159;-76
2022/01/11 04:14:45;;;;;;;;;4.00;1.00;;;;;3.88;70.95;102658.00;5065971;28;45398;-76
2022/01/11 04:17:11;;;;;;;;;0.75;0.75;;;;;3.94;71.11;102665.22;5062676;28;45385;-76
2022/01/11 04:19:37;;;;;;;;;2.00;0.00;;;;;3.78;70.85;102638.44;5055804;28;45324;-77
2022/01/11 04:22:03;;;;;;;;;4.00;0.75;;;;;3.87;71.93;102653.63;5066609;28;45450;-76
2022/01/11 04:24:28;;;;;;;;;0.25;0.25;;;;;3.71;70.32;102625.03;5065382;28;45514;-76
2022/01/11 04:26:54;;;;;;;;;0.75;0.75;;;;;4.06;71.15;102690.94;5066102;28;45373;-76
2022/01/11 04:29:19;;;;;;;;;2.00;0.25;;;;;4.05;70.66;102684.00;5066449;28;45718;-76
2022/01/11 04:31:45;;;;;;;;;0.00;0.00;;;;;3.82;70.99;102641.25;5065896;28;46088;-76
2022/01/11 04:34:10;;;;;;;;;1.75;1.00;;;;;3.99;70.69;102658.72;5046187;28;45407;-76
2022/01/11 04:36:36;;;;;;;;;0.50;0.25;;;;;3.80;71.25;102611.09;5065516;28;45343;-76
2022/01/11 04:39:09;;;;;;;;;1.00;1.00;;;;;3.95;70.60;102648.97;5066170;28;45409;-76
2022/01/11 04:41:35;;;;;;;;;1.00;1.00;;;;;4.04;70.48;102675.38;5053456;28;46252;-76
2022/01/11 04:44:01;;;;;;;;;2.00;0.75;;;;;3.84;71.61;102649.94;5045582;28;45442;-76
2022/01/11 04:46:26;;;;;;;;;1.00;1.00;;;;;3.98;71.52;102667.22;5042182;28;45455;-76
2022/01/11 04:48:53;;;;;;;;;1.00;0.50;;;;;3.96;71.46;102670.50;5042977;28;45466;-76
2022/01/11 04:51:19;;;;;;;;;0.25;0.25;;;;;3.77;71.16;102656.38;5042435;28;46246;-75
2022/01/11 04:53:45;;;;;;;;;0.75;0.75;;;;;3.91;71.44;102680.47;5042363;28;45649;-75
2022/01/11 04:56:11;;;;;;;;;0.50;0.00;;;;;4.00;71.56;102700.81;5042311;28;45524;-75
2022/01/11 04:58:36;;;;;;;;;2.00;1.00;;;;;3.78;70.98;102658.16;5042834;28;45436;-77
2022/01/11 05:01:02;;;;;;;;;0.00;0.00;;;;;4.09;71.33;102713.44;5059670;28;45315;-76
2022/01/11 05:03:27;;;;;;;;;3.00;0.00;;;;;3.93;70.73;102673.75;5062538;28;45383;-77
2022/01/11 05:05:52;;;;;;;;;0.00;0.00;;;;;3.98;71.47;102664.63;5057374;28;45361;-77
2022/01/11 05:08:18;;;;;;;;;0.00;0.00;;;;;4.17;71.13;102692.53;5036355;28;45423;-77
2022/01/11 05:10:43;;;;;;;;;0.00;0.00;;;;;4.23;70.44;102702.34;5042190;28;45517;-77
2022/01/11 05:13:11;;;;;;;;;2.00;1.00;;;;;4.12;71.16;102687.88;5053842;28;45352;-77
2022/01/11 05:15:37;;;;;;;;;1.25;1.25;;;;;3.60;70.58;102607.19;5062443;28;45442;-77
2022/01/11 05:18:02;;;;;;;;;0.00;0.00;;;;;3.95;70.49;102667.00;5044244;28;45356;-77
2022/01/11 05:20:27;;;;;;;;;2.75;1.25;;;;;4.24;70.73;102703.28;5061781;28;46301;-77
2022/01/11 05:22:53;;;;;;;;;1.25;1.25;;;;;4.26;71.02;102705.16;5054755;28;45358;-77
2022/01/11 05:25:20;;;;;;;;;4.25;0.75;;;;;4.15;71.19;102695.81;5031427;28;45335;-77
2022/01/11 05:27:46;;;;;;;;;2.00;1.00;;;;;4.21;71.20;102703.06;5030603;28;45715;-77
2022/01/11 05:30:11;;;;;;;;;0.75;0.75;;;;;4.09;70.59;102687.66;5037800;28;46292;-77
2022/01/11 05:32:37;;;;;;;;;2.00;2.00;;;;;4.11;70.19;102683.53;5040883;28;45490;-77
2022/01/11 05:35:04;;;;;;;;;0.00;0.00;;;;;4.17;70.71;102695.13;5022351;28;45411;-77
2022/01/11 05:37:30;;;;;;;;;0.75;0.75;;;;;4.25;69.85;102712.78;5022605;28;45575;-78
2022/01/11 05:39:55;;;;;;;;;1.00;1.00;;;;;4.16;70.32;102697.59;5040065;28;46190;-77
2022/01/11 05:42:22;;;;;;;;;1.75;1.75;;;;;3.73;70.42;102633.75;5040968;28;45427;-77
2022/01/11 05:44:47;;;;;;;;;1.00;1.00;;;;;4.13;70.60;102726.66;5022372;28;45526;-77
2022/01/11 05:47:13;;;;;;;;;1.00;1.00;;;;;4.27;69.68;102744.72;5023038;28;45384;-77
2022/01/11 05:49:38;;;;;;;;;0.50;0.50;;;;;4.22;70.18;102728.06;5040272;28;46050;-77
2022/01/11 05:52:03;;;;;;;;;1.00;0.00;;;;;4.15;70.13;102719.00;5041248;28;45452;-77
2022/01/11 05:54:29;;;;;;;;;1.00;1.00;;;;;4.02;70.34;102687.25;5040134;28;45468;-77
2022/01/11 05:56:54;;;;;;;;;1.00;1.00;;;;;4.14;69.91;102706.94;5041005;28;45367;-75
2022/01/11 05:59:20;;;;;;;;;0.75;0.00;;;;;4.03;69.71;102706.19;5040682;28;45645;-77
2022/01/11 06:01:45;;;;;;;;;1.00;1.00;;;;;3.86;70.04;102681.88;5039133;28;45380;-74
2022/01/11 06:04:11;;;;;;;;;0.75;0.75;;;;;4.07;69.84;102731.38;5011950;28;45266;-76
2022/01/11 06:06:36;;;;;;;;;0.50;0.50;;;;;4.04;69.45;102738.91;5041618;28;45371;-76
2022/01/11 06:09:03;;;;;;;;;3.75;0.75;;;;;4.06;68.75;102734.75;5041374;28;45970;-74
2022/01/11 06:11:29;;;;;;;;;3.75;2.00;;;;;4.18;69.46;102763.06;5038091;28;45553;-75
2022/01/11 06:13:54;;;;;;;;;0.50;0.00;;;;;3.89;69.21;102719.03;5040628;28;45513;-76
2022/01/11 06:16:21;;;;;;;;;1.25;1.00;;;;;4.04;68.90;102749.22;5040296;28;45407;-76
2022/01/11 06:18:47;;;;;;;;;1.50;0.75;;;;;4.05;69.48;102772.50;5040124;28;45371;-76
2022/01/11 06:21:12;;;;;;;;;0.75;0.50;;;;;3.95;69.15;102754.63;5037324;28;45452;-77
2022/01/11 06:23:38;;;;;;;;;1.75;0.25;;;;;4.11;69.39;102772.06;5038827;28;45493;-77
2022/01/11 06:26:03;;;;;;;;;0.75;0.25;;;;;3.91;69.32;102737.19;5053895;28;45760;-75
2022/01/11 06:28:29;;;;;;;;;0.00;0.00;;;;;4.00;68.85;102757.53;5041583;28;48204;-75
2022/01/11 06:30:54;;;;;;;;;1.00;1.00;;;;;3.86;69.15;102742.00;5039248;28;45684;-75
2022/01/11 06:33:20;;;;;;;;;1.00;0.00;;;;;3.80;69.03;102723.59;5057543;28;45500;-76
2022/01/11 06:35:45;;;;;;;;;1.00;1.00;;;;;3.85;68.43;102741.91;5039240;28;45633;-76
2022/01/11 06:38:11;;;;;;;;;1.00;1.00;;;;;3.82;69.47;102742.59;5041946;28;47099;-76
2022/01/11 06:40:36;;;;;;;;;1.00;1.00;;;;;3.89;69.60;102757.69;5056296;28;45342;-75
2022/01/11 06:43:02;;;;;;;;;1.50;1.25;;;;;3.73;69.35;102736.81;5056396;28;45377;-75
2022/01/11 06:45:28;;;;;;;;;1.00;1.00;;;;;3.93;68.62;102779.44;5040124;28;45916;-74
2022/01/11 06:47:54;;;;;;;;;2.00;1.00;;;;;3.63;68.60;102725.88;5059042;28;47078;-76
2022/01/11 06:50:20;;;;;;;;;2.00;2.00;;;;;3.88;68.80;102784.25;5040677;28;45456;-77
2022/01/11 06:52:46;;;;;;;;;1.25;1.25;;;;;3.71;69.33;102751.28;5057273;28;45506;-76
2022/01/11 06:55:12;;;;;;;;;1.00;1.00;;;;;3.84;69.05;102771.97;5057960;28;45405;-76
2022/01/11 06:57:37;;;;;;;;;0.00;0.00;;;;;3.84;69.40;102773.63;5059769;28;46164;-77
2022/01/11 07:00:09;;;;;;;;;2.00;0.75;;;;;3.86;69.02;102780.66;5048215;28;45749;-77
2022/01/11 07:02:34;;;;;;;;;1.00;1.00;;;;;3.67;69.41;102752.72;5056555;28;45425;-77
2022/01/11 07:04:59;;;;;;;;;2.50;1.50;;;;;3.56;68.45;102741.69;5052913;28;45509;-77
2022/01/11 07:07:25;;;;;;;;;3.00;1.25;;;;;3.78;69.40;102780.16;5057904;28;46286;-76
2022/01/11 07:09:50;;;;;;;;;2.25;1.00;;;;;3.73;69.53;102789.22;5055514;28;45767;-77
2022/01/11 07:12:16;;;;;;;;;3.00;3.00;;;;;3.72;68.49;102792.59;5059546;28;45430;-75
2022/01/11 07:14:41;;;;;;;;;1.75;1.75;;;;;3.55;68.89;102766.56;5039100;28;45449;-76
2022/01/11 07:17:06;;;;;;;;;1.00;1.00;;;;;3.61;69.21;102780.66;5060854;28;45471;-76
2022/01/11 07:19:34;;;;;;;;;2.25;2.00;;;;;3.61;68.64;102785.81;5059370;28;45386;-76
2022/01/11 07:21:59;;;;;;;;;2.75;2.50;;;;;3.57;69.55;102776.97;5058138;28;45517;-76
2022/01/11 07:24:25;;;;;;;;;1.75;1.75;;;;;3.59;68.56;102774.50;5059584;28;45610;-75
2022/01/11 07:26:51;;;;;;;;;0.50;0.50;;;;;3.74;68.71;102803.03;5022966;28;48186;-76
2022/01/11 07:29:18;;;;;;;;;1.00;1.00;;;;;3.45;69.15;102765.78;5038821;28;45555;-75
2022/01/11 07:31:43;;;;;;;;;4.00;1.75;;;;;3.56;69.27;102798.38;5039720;28;45814;-76
2022/01/11 07:34:09;;;;;;;;;1.75;1.75;;;;;3.73;68.22;102834.69;5058457;28;45568;-76
2022/01/11 07:36:35;;;;;;;;;2.00;2.00;;;;;3.73;68.58;102829.53;5056340;28;45459;-76
2022/01/11 07:39:02;;;;;;;;;1.00;1.00;;;;;3.86;68.52;102846.78;5039440;28;45404;-74
2022/01/11 07:41:28;;;;;;;;;1.00;1.00;;;;;3.88;67.89;102853.84;5057011;28;45495;-75
2022/01/11 07:43:53;;;;;;;;;2.00;2.00;;;;;3.65;68.72;102805.84;5056943;28;45378;-77
2022/01/11 07:46:18;;;;;;;;;1.75;1.75;;;;;3.74;68.90;102821.94;5059160;28;45548;-76
2022/01/11 07:48:44;;;;;;;;;2.25;2.25;;;;;3.87;68.23;102846.00;5050788;28;46001;-76
2022/01/11 07:51:10;;;;;;;;;0.50;0.50;;;;;3.73;69.03;102820.16;5052123;28;45917;-77
2022/01/11 07:53:36;;;;;;;;;2.00;2.00;;;;;3.86;67.50;102849.38;5057736;28;45521;-78
2022/01/11 07:56:01;;;;;;;;;1.00;1.00;;;;;3.84;68.30;102846.69;5046374;28;47004;-76
2022/01/11 07:58:27;;;;;;;;;2.00;0.50;;;;;3.70;68.59;102834.50;5055959;28;45496;-75
2022/01/11 08:00:52;;;;;;;;;1.50;0.75;;;;;3.70;67.95;102831.94;5038984;28;45474;-75
2022/01/11 08:03:18;;;;;;;;;2.00;0.00;;;;;3.40;68.03;102794.69;5055847;28;46846;-76
2022/01/11 08:05:44;;;;;;;;;0.25;0.25;;;;;3.55;68.57;102814.59;5039476;28;47304;-79
2022/01/11 08:08:09;;;;;;;;;0.25;0.25;;;;;3.62;68.05;102834.84;5040003;28;45422;-76
2022/01/11 08:10:35;;;;;;;;;2.50;2.25;;;;;3.29;68.51;102803.31;5036094;28;45416;-77
2022/01/11 08:13:05;;;;;;;;;1.50;0.25;;;;;3.53;68.67;102850.53;5047221;28;45407;-78
2022/01/11 08:15:32;;;;;;;;;2.00;2.00;;;;;3.19;68.63;102793.16;5040251;28;46385;-79
2022/01/11 08:17:58;;;;;;;;;0.75;0.75;;;;;3.44;68.54;102838.69;5058153;28;45455;-77
2022/01/11 08:20:23;;;;;;;;;3.25;2.00;;;;;3.39;68.34;102835.75;5055356;28;45436;-77
2022/01/11 08:22:50;;;;;;;;;3.00;1.75;;;;;3.53;67.75;102863.41;5057767;28;45377;-76
2022/01/11 08:25:15;;;;;;;;;2.00;2.00;;;;;3.63;68.16;102880.44;5057715;28;46181;-79
2022/01/11 08:27:40;;;;;;;;;1.00;1.00;;;;;3.49;69.02;102863.09;5061560;28;45490;-81
2022/01/11 08:30:07;;;;;;;;;1.50;1.00;;;;;3.72;68.49;102889.59;5049582;28;45430;-81
2022/01/11 08:32:32;;;;;;;;;4.50;2.00;;;;;3.70;69.35;102893.75;5055926;28;45744;-83
2022/01/11 08:34:58;;;;;;;;;2.00;2.00;;;;;3.45;68.34;102841.38;5060578;28;45453;-80
2022/01/11 08:37:23;;;;;;;;;3.00;2.00;;;;;3.12;67.90;102789.22;5062851;28;45663;-84
2022/01/11 08:39:49;;;;;;;;;1.00;1.00;;;;;3.62;69.06;102870.03;5063418;28;45357;-79
2022/01/11 08:42:14;;;;;;;;;4.25;3.50;;;;;3.09;68.60;102786.44;5044898;28;45408;-83
2022/01/11 08:44:42;;;;;;;;;1.00;1.00;;;;;3.84;68.64;102899.88;5062401;28;45328;-81
2022/01/11 08:47:07;;;;;;;;;2.00;1.75;;;;;3.89;68.16;102904.56;5060668;28;44811;-81
2022/01/11 08:49:34;;;;;;;;;2.50;1.00;;;;;3.53;68.44;102824.78;5071341;28;45417;-82
2022/01/11 08:52:00;;;;;;;;;2.50;0.50;;;;;3.67;68.41;102836.06;5067230;28;45418;-81
2022/01/11 08:54:25;;;;;;;;;1.00;1.00;;;;;3.96;68.43;102889.56;5062217;28;45702;-82
2022/01/11 08:56:54;;;;;;;;;2.75;2.75;;;;;3.72;68.04;102853.53;5062197;28;45645;-81
2022/01/11 08:59:19;;;;;;;;;2.50;1.75;;;;;3.73;68.26;102863.94;5062788;28;45361;-81
2022/01/11 09:01:45;;;;;;;;;1.00;1.00;;;;;3.65;68.41;102849.63;5061914;28;45352;-82
2022/01/11 09:04:10;;;;;;;;;2.00;1.00;;;;;3.64;68.01;102852.97;5061970;28;45367;-81
2022/01/11 09:06:36;;;;;;;;;3.50;3.00;;;;;2.94;68.26;102745.94;5061271;28;45449;-81
2022/01/11 09:09:03;;;;;;;;;4.25;2.00;;;;;3.52;67.85;102835.00;5061171;28;45456;-81
2022/01/11 09:11:28;;;;;;;;;3.75;1.25;;;;;3.47;68.34;102826.94;5062555;28;45489;-82
2022/01/11 09:13:54;;;;;;;;;2.00;2.00;;;;;2.94;67.47;102750.19;5060189;28;45433;-82
2022/01/11 09:16:21;;;;;;;;;4.00;4.00;;;;;3.39;68.38;102839.25;5060946;28;45395;-83
2022/01/11 09:18:49;;;;;;;;;2.75;2.75;;;;;3.12;68.56;102786.66;5033369;28;45387;-83
2022/01/11 09:21:15;;;;;;;;;1.00;0.75;;;;;3.33;68.17;102843.03;5059754;28;45285;-83
2022/01/11 09:23:41;;;;;;;;;0.50;0.50;;;;;3.31;67.77;102840.38;5058839;28;46717;-82
2022/01/11 09:26:06;;;;;;;;;2.00;2.00;;;;;3.66;68.86;102890.97;5059944;28;45730;-83
2022/01/11 09:28:32;;;;;;;;;1.50;1.50;;;;;3.89;68.34;102914.00;5061702;28;45508;-82
2022/01/11 09:30:57;;;;;;;;;2.25;2.25;;;;;3.42;68.02;102852.34;5061241;28;45430;-83
2022/01/11 09:33:23;;;;;;;;;1.00;1.00;;;;;3.49;68.11;102882.00;5062396;28;45437;-83
2022/01/11 09:35:48;;;;;;;;;2.00;2.00;;;;;2.97;68.74;102782.19;5061996;28;45473;-84
2022/01/11 09:38:14;;;;;;;;;2.00;1.00;;;;;3.71;68.16;102918.72;5062002;28;45479;-83
2022/01/11 09:40:39;;;;;;;;;2.75;1.00;;;;;3.65;68.26;102922.63;5062101;28;45368;-83
2022/01/11 09:43:05;;;;;;;;;2.50;2.25;;;;;3.51;68.61;102898.47;5060306;28;45567;-82
2022/01/11 09:45:30;;;;;;;;;3.50;1.00;;;;;3.14;68.41;102842.63;5055674;28;46042;-81
2022/01/11 09:47:56;;;;;;;;;0.75;0.75;;;;;3.10;68.70;102825.16;5049732;28;45484;-82
2022/01/11 09:50:22;;;;;;;;;2.50;2.00;;;;;3.70;68.85;102928.13;5060878;28;45715;-82
2022/01/11 09:52:47;;;;;;;;;3.00;2.25;;;;;3.23;68.34;102865.56;5057886;28;45375;-80
2022/01/11 09:55:14;;;;;;;;;6.50;4.25;;;;;3.50;69.23;102916.38;5061396;28;45361;-79
2022/01/11 09:57:41;;;;;;;;;3.25;2.75;;;;;3.19;68.06;102862.66;5051192;28;45379;-79
2022/01/11 10:00:09;;;;;;;;;1.25;1.00;;;;;3.65;68.69;102940.66;5045106;28;45378;-80
2022/01/11 10:02:35;;;;;;;;;1.50;1.50;;;;;3.14;68.16;102852.91;5056324;28;45410;-79
2022/01/11 10:05:05;;;;;;;;;0.00;0.00;;;;;3.54;69.09;102909.00;5045078;28;45383;-78
2022/01/11 10:07:40;;;;;;;;;1.00;1.00;;;;;3.36;69.03;102869.94;5060013;28;45774;-78
2022/01/11 10:10:11;;;;;;;;;2.25;2.25;;;;;3.53;69.14;102883.13;5057931;28;45835;-79
2022/01/11 10:12:50;;;;;;;;;4.25;4.25;;;;;3.66;68.63;102898.69;5057636;28;45846;-78
2022/01/11 10:15:26;;;;;;;;;3.25;2.50;;;;;3.74;68.20;102908.66;5051298;28;45705;-77
2022/01/11 10:17:52;;;;;;;;;2.25;1.75;;;;;4.02;68.24;102952.72;5062871;28;45527;-79
2022/01/11 10:20:20;;;;;;;;;1.75;1.75;;;;;3.98;68.42;102939.53;5064954;28;45627;-77
2022/01/11 10:23:05;;;;;;;;;1.00;1.00;;;;;4.10;68.80;102953.28;5041853;28;46683;-79
2022/01/11 10:25:41;;;;;;;;;3.00;1.75;;;;;4.00;67.62;102933.72;5060239;28;45762;-79
2022/01/11 10:28:07;;;;;;;;;1.25;1.00;;;;;4.16;68.03;102955.41;5059356;28;45467;-81
2022/01/11 10:30:34;;;;;;;;;3.25;2.00;;;;;4.19;68.19;102965.94;5059953;28;45350;-79
2022/01/11 10:33:04;;;;;;;;;2.00;2.00;;;;;3.75;67.98;102885.56;5059470;28;46435;-79
2022/01/11 10:35:44;;;;;;;;;3.00;3.00;;;;;4.22;68.26;102968.72;5041528;28;45637;-81
2022/01/11 10:38:12;;;;;;;;;4.00;2.75;;;;;4.11;67.68;102949.03;5060030;28;45688;-80
2022/01/11 10:40:44;;;;;;;;;4.50;1.75;;;;;4.08;67.79;102939.41;5061246;28;45635;-77
2022/01/11 10:43:11;;;;;;;;;2.00;1.75;;;;;4.30;67.60;102967.63;5056326;28;45491;-77
2022/01/11 10:45:39;;;;;;;;;2.00;1.75;;;;;4.29;67.88;102981.28;5058500;28;45429;-78
2022/01/11 10:48:11;;;;;;;;;2.00;2.00;;;;;4.27;67.70;102979.38;5058100;28;45544;-79
2022/01/11 10:50:42;;;;;;;;;3.00;1.00;;;;;4.18;67.48;102972.78;5056676;28;45474;-80
2022/01/11 10:53:18;;;;;;;;;10.75;3.50;;;;;4.01;67.88;102955.22;5057018;28;46269;-80
2022/01/11 10:55:48;;;;;;;;;2.00;2.00;;;;;3.85;67.30;102920.63;5057558;28;45558;-79
2022/01/11 10:58:14;;;;;;;;;3.25;1.00;;;;;3.95;68.26;102937.63;5057011;28;45601;-80
2022/01/11 11:00:46;;;;;;;;;1.25;1.25;;;;;3.94;67.36;102941.00;5040791;28;45628;-81
2022/01/11 11:03:17;;;;;;;;;8.50;4.25;;;;;3.52;67.93;102905.41;5058009;28;45292;-77
2022/01/11 11:05:51;;;;;;;;;5.25;1.75;;;;;3.90;67.15;102965.66;5059891;28;45346;-80
2022/01/11 11:08:25;;;;;;;;;0.75;0.75;;;;;3.71;68.19;102917.06;5040627;28;45510;-80
2022/01/11 11:11:00;;;;;;;;;1.75;1.75;;;;;3.87;68.04;102925.88;5060098;28;45493;-81
2022/01/11 11:13:30;;;;;;;;;3.00;1.00;;;;;4.25;67.52;102971.53;5059360;28;46002;-80
2022/01/11 11:16:22;;;;;;;;;3.00;1.00;;;;;4.36;67.25;102976.56;5038537;28;45414;-80
2022/01/11 11:18:54;;;;;;;;;2.50;2.50;;;;;4.10;67.67;102924.94;5058320;28;47139;-81
2022/01/11 11:21:27;;;;;;;;;1.00;1.00;;;;;4.02;66.88;102867.66;5057356;28;45524;-79
2022/01/11 11:23:59;;;;;;;;;3.25;3.00;;;;;4.64;67.38;102944.94;5057626;28;45577;-80
2022/01/11 11:26:28;;;;;;;;;1.75;1.75;;;;;4.68;66.57;102942.69;5033469;28;45383;-80
2022/01/11 11:28:55;;;;;;;;;5.50;2.00;;;;;3.87;66.28;102805.66;5039078;28;45901;-80
2022/01/11 11:31:21;;;;;;;;;1.00;0.75;;;;;4.67;66.58;102958.97;5020333;28;45896;-81
2022/01/11 11:33:47;;;;;;;;;2.75;1.75;;;;;4.92;67.44;102959.72;5010052;28;46796;-81